sensor_id;sensor_type;location;lat;lon;timestamp;P1;durP1;ratioP1;P2;durP2;ratioP2
35681;SDS011;21805;51.022;4.782;2023-11-21T00:39:34;48.83;;;26.70;;
35681;SDS011;21805;51.022;4.782;2023-11-21T00:42:41;59.00;;;28.08;;
35681;SDS011;21805;51.022;4.782;2023-11-21T00:48:31;91.68;;;29.77;;
35681;SDS011;21805;51.022;4.782;2023-11-21T00:51:02;59.13;;;29.52;;
35681;SDS011;21805;51.022;4.782;2023-11-21T00:56:05;78.25;;;28.83;;
35681;SDS011;21805;51.022;4.782;2023-11-21T01:01:16;67.03;;;30.10;;
35681;SDS011;21805;51.022;4.782;2023-11-21T01:03:48;55.95;;;28.45;;
35681;SDS011;21805;51.022;4.782;2023-11-21T01:09:34;53.22;;;29.20;;
35681;SDS011;21805;51.022;4.782;2023-11-21T01:12:05;65.13;;;33.03;;
35681;SDS011;21805;51.022;4.782;2023-11-21T01:17:15;63.35;;;30.38;;
35681;SDS011;21805;51.022;4.782;2023-11-21T01:19:44;63.38;;;30.83;;
35681;SDS011;21805;51.022;4.782;2023-11-21T01:22:19;57.58;;;30.35;;
35681;SDS011;21805;51.022;4.782;2023-11-21T01:27:23;58.78;;;28.90;;
35681;SDS011;21805;51.022;4.782;2023-11-21T01:29:49;58.83;;;30.55;;
35681;SDS011;21805;51.022;4.782;2023-11-21T01:32:19;66.38;;;30.70;;
35681;SDS011;21805;51.022;4.782;2023-11-21T01:34:53;84.03;;;32.97;;
35681;SDS011;21805;51.022;4.782;2023-11-21T01:37:23;70.28;;;29.17;;
35681;SDS011;21805;51.022;4.782;2023-11-21T01:39:53;67.18;;;29.75;;
35681;SDS011;21805;51.022;4.782;2023-11-21T01:42:20;68.60;;;30.70;;
35681;SDS011;21805;51.022;4.782;2023-11-21T01:44:55;88.95;;;30.40;;
35681;SDS011;21805;51.022;4.782;2023-11-21T01:47:24;115.53;;;32.60;;
35681;SDS011;21805;51.022;4.782;2023-11-21T01:50:03;79.82;;;32.17;;
35681;SDS011;21805;51.022;4.782;2023-11-21T01:52:35;170.90;;;33.47;;
35681;SDS011;21805;51.022;4.782;2023-11-21T02:00:36;261.35;;;34.13;;
35681;SDS011;21805;51.022;4.782;2023-11-21T02:03:04;430.05;;;35.63;;
35681;SDS011;21805;51.022;4.782;2023-11-21T02:05:34;162.80;;;32.92;;
35681;SDS011;21805;51.022;4.782;2023-11-21T02:08:02;269.15;;;36.45;;
35681;SDS011;21805;51.022;4.782;2023-11-21T02:10:30;296.23;;;35.65;;
35681;SDS011;21805;51.022;4.782;2023-11-21T02:13:00;460.48;;;36.80;;
35681;SDS011;21805;51.022;4.782;2023-11-21T02:15:28;147.73;;;33.40;;
35681;SDS011;21805;51.022;4.782;2023-11-21T02:18:00;162.60;;;34.30;;
35681;SDS011;21805;51.022;4.782;2023-11-21T02:20:28;337.83;;;35.10;;
35681;SDS011;21805;51.022;4.782;2023-11-21T02:22:56;210.20;;;34.42;;
35681;SDS011;21805;51.022;4.782;2023-11-21T02:25:28;216.52;;;36.30;;
35681;SDS011;21805;51.022;4.782;2023-11-21T02:28:00;186.68;;;35.58;;
35681;SDS011;21805;51.022;4.782;2023-11-21T02:30:32;94.72;;;30.55;;
35681;SDS011;21805;51.022;4.782;2023-11-21T02:33:02;137.90;;;31.25;;
35681;SDS011;21805;51.022;4.782;2023-11-21T02:35:34;141.77;;;33.22;;
35681;SDS011;21805;51.022;4.782;2023-11-21T02:38:00;276.90;;;34.97;;
35681;SDS011;21805;51.022;4.782;2023-11-21T02:40:27;169.88;;;34.38;;
35681;SDS011;21805;51.022;4.782;2023-11-21T02:42:56;181.70;;;32.88;;
35681;SDS011;21805;51.022;4.782;2023-11-21T02:45:24;113.97;;;33.10;;
35681;SDS011;21805;51.022;4.782;2023-11-21T02:47:59;97.68;;;35.25;;
35681;SDS011;21805;51.022;4.782;2023-11-21T02:50:26;69.45;;;33.92;;
35681;SDS011;21805;51.022;4.782;2023-11-21T02:52:56;72.65;;;33.45;;
35681;SDS011;21805;51.022;4.782;2023-11-21T02:55:31;71.90;;;32.75;;
35681;SDS011;21805;51.022;4.782;2023-11-21T02:58:01;60.08;;;31.98;;
35681;SDS011;21805;51.022;4.782;2023-11-21T03:00:31;63.55;;;30.95;;
35681;SDS011;21805;51.022;4.782;2023-11-21T03:03:04;295.27;;;34.75;;
35681;SDS011;21805;51.022;4.782;2023-11-21T03:05:31;68.75;;;29.88;;
35681;SDS011;21805;51.022;4.782;2023-11-21T03:08:02;74.90;;;33.63;;
35681;SDS011;21805;51.022;4.782;2023-11-21T03:13:02;62.22;;;31.55;;
35681;SDS011;21805;51.022;4.782;2023-11-21T03:18:00;56.47;;;32.08;;
35681;SDS011;21805;51.022;4.782;2023-11-21T03:20:31;51.20;;;29.00;;
35681;SDS011;21805;51.022;4.782;2023-11-21T03:23:00;56.97;;;30.48;;
35681;SDS011;21805;51.022;4.782;2023-11-21T03:28:36;46.22;;;28.77;;
35681;SDS011;21805;51.022;4.782;2023-11-21T03:31:16;51.65;;;29.25;;
35681;SDS011;21805;51.022;4.782;2023-11-21T03:33:51;50.80;;;30.08;;
35681;SDS011;21805;51.022;4.782;2023-11-21T03:36:20;48.45;;;29.65;;
35681;SDS011;21805;51.022;4.782;2023-11-21T03:38:47;47.47;;;29.33;;
35681;SDS011;21805;51.022;4.782;2023-11-21T03:41:21;47.53;;;27.98;;
35681;SDS011;21805;51.022;4.782;2023-11-21T03:43:51;49.33;;;29.73;;
35681;SDS011;21805;51.022;4.782;2023-11-21T03:46:22;49.22;;;30.17;;
35681;SDS011;21805;51.022;4.782;2023-11-21T03:48:54;54.15;;;30.63;;
35681;SDS011;21805;51.022;4.782;2023-11-21T03:51:26;55.17;;;28.27;;
35681;SDS011;21805;51.022;4.782;2023-11-21T03:54:00;47.53;;;28.83;;
35681;SDS011;21805;51.022;4.782;2023-11-21T03:56:31;50.83;;;28.27;;
35681;SDS011;21805;51.022;4.782;2023-11-21T03:59:04;48.63;;;29.13;;
35681;SDS011;21805;51.022;4.782;2023-11-21T04:01:31;46.10;;;27.90;;
35681;SDS011;21805;51.022;4.782;2023-11-21T04:03:59;49.95;;;28.95;;
35681;SDS011;21805;51.022;4.782;2023-11-21T04:06:27;57.42;;;29.42;;
35681;SDS011;21805;51.022;4.782;2023-11-21T04:08:58;54.42;;;29.33;;
35681;SDS011;21805;51.022;4.782;2023-11-21T04:11:30;50.03;;;27.92;;
35681;SDS011;21805;51.022;4.782;2023-11-21T04:14:04;47.15;;;28.35;;
35681;SDS011;21805;51.022;4.782;2023-11-21T04:16:40;46.97;;;28.38;;
35681;SDS011;21805;51.022;4.782;2023-11-21T04:19:11;47.67;;;27.17;;
35681;SDS011;21805;51.022;4.782;2023-11-21T04:21:45;58.85;;;28.33;;
35681;SDS011;21805;51.022;4.782;2023-11-21T04:24:17;46.55;;;26.73;;
35681;SDS011;21805;51.022;4.782;2023-11-21T04:26:51;53.25;;;27.75;;
35681;SDS011;21805;51.022;4.782;2023-11-21T04:29:22;54.17;;;27.52;;
35681;SDS011;21805;51.022;4.782;2023-11-21T04:31:54;48.80;;;25.65;;
35681;SDS011;21805;51.022;4.782;2023-11-21T04:34:22;54.42;;;29.13;;
35681;SDS011;21805;51.022;4.782;2023-11-21T04:36:54;43.72;;;24.50;;
35681;SDS011;21805;51.022;4.782;2023-11-21T04:39:24;55.35;;;25.58;;
35681;SDS011;21805;51.022;4.782;2023-11-21T04:41:53;58.70;;;26.67;;
35681;SDS011;21805;51.022;4.782;2023-11-21T04:44:29;49.88;;;27.55;;
35681;SDS011;21805;51.022;4.782;2023-11-21T04:47:03;58.08;;;27.73;;
35681;SDS011;21805;51.022;4.782;2023-11-21T04:52:04;57.78;;;27.85;;
35681;SDS011;21805;51.022;4.782;2023-11-21T04:54:46;58.85;;;28.90;;
35681;SDS011;21805;51.022;4.782;2023-11-21T04:57:17;62.95;;;27.60;;
35681;SDS011;21805;51.022;4.782;2023-11-21T04:59:48;54.67;;;27.90;;
35681;SDS011;21805;51.022;4.782;2023-11-21T05:02:18;47.33;;;25.90;;
35681;SDS011;21805;51.022;4.782;2023-11-21T05:04:52;56.75;;;27.15;;
35681;SDS011;21805;51.022;4.782;2023-11-21T05:07:23;48.70;;;25.35;;
35681;SDS011;21805;51.022;4.782;2023-11-21T05:10:12;52.28;;;27.08;;
35681;SDS011;21805;51.022;4.782;2023-11-21T05:12:47;60.38;;;27.98;;
35681;SDS011;21805;51.022;4.782;2023-11-21T05:15:18;60.33;;;27.42;;
35681;SDS011;21805;51.022;4.782;2023-11-21T05:17:49;53.03;;;27.52;;
35681;SDS011;21805;51.022;4.782;2023-11-21T05:20:28;49.83;;;25.80;;
35681;SDS011;21805;51.022;4.782;2023-11-21T05:22:57;57.13;;;27.20;;
35681;SDS011;21805;51.022;4.782;2023-11-21T05:25:24;60.63;;;28.23;;
35681;SDS011;21805;51.022;4.782;2023-11-21T05:27:50;53.17;;;26.92;;
35681;SDS011;21805;51.022;4.782;2023-11-21T05:30:16;54.17;;;27.00;;
35681;SDS011;21805;51.022;4.782;2023-11-21T05:32:44;58.70;;;28.77;;
35681;SDS011;21805;51.022;4.782;2023-11-21T05:35:12;52.17;;;26.60;;
35681;SDS011;21805;51.022;4.782;2023-11-21T05:37:42;55.85;;;26.08;;
35681;SDS011;21805;51.022;4.782;2023-11-21T05:40:11;55.78;;;25.92;;
35681;SDS011;21805;51.022;4.782;2023-11-21T05:42:41;53.78;;;27.92;;
35681;SDS011;21805;51.022;4.782;2023-11-21T05:45:07;52.92;;;27.73;;
35681;SDS011;21805;51.022;4.782;2023-11-21T05:47:37;47.63;;;25.27;;
35681;SDS011;21805;51.022;4.782;2023-11-21T05:50:08;51.88;;;26.75;;
35681;SDS011;21805;51.022;4.782;2023-11-21T05:52:37;54.15;;;28.08;;
35681;SDS011;21805;51.022;4.782;2023-11-21T05:55:18;49.63;;;26.13;;
35681;SDS011;21805;51.022;4.782;2023-11-21T05:57:49;58.25;;;26.42;;
35681;SDS011;21805;51.022;4.782;2023-11-21T06:00:19;55.95;;;27.27;;
35681;SDS011;21805;51.022;4.782;2023-11-21T06:02:52;58.55;;;26.77;;
35681;SDS011;21805;51.022;4.782;2023-11-21T06:05:30;48.08;;;25.48;;
35681;SDS011;21805;51.022;4.782;2023-11-21T06:08:05;49.78;;;25.73;;
35681;SDS011;21805;51.022;4.782;2023-11-21T06:10:35;58.70;;;29.52;;
35681;SDS011;21805;51.022;4.782;2023-11-21T06:13:06;52.38;;;27.30;;
35681;SDS011;21805;51.022;4.782;2023-11-21T06:15:33;51.25;;;25.80;;
35681;SDS011;21805;51.022;4.782;2023-11-21T06:18:01;56.33;;;27.77;;
35681;SDS011;21805;51.022;4.782;2023-11-21T06:20:30;57.97;;;26.63;;
35681;SDS011;21805;51.022;4.782;2023-11-21T06:23:04;54.05;;;26.55;;
35681;SDS011;21805;51.022;4.782;2023-11-21T06:25:32;49.30;;;25.73;;
35681;SDS011;21805;51.022;4.782;2023-11-21T06:28:04;49.55;;;22.90;;
35681;SDS011;21805;51.022;4.782;2023-11-21T06:30:38;49.70;;;24.60;;
35681;SDS011;21805;51.022;4.782;2023-11-21T06:33:04;61.42;;;26.95;;
35681;SDS011;21805;51.022;4.782;2023-11-21T06:35:42;56.03;;;26.23;;
35681;SDS011;21805;51.022;4.782;2023-11-21T06:38:15;44.58;;;23.67;;
35681;SDS011;21805;51.022;4.782;2023-11-21T06:40:46;62.85;;;26.25;;
35681;SDS011;21805;51.022;4.782;2023-11-21T06:43:29;61.05;;;26.33;;
35681;SDS011;21805;51.022;4.782;2023-11-21T06:46:00;68.22;;;25.88;;
35681;SDS011;21805;51.022;4.782;2023-11-21T06:48:30;51.80;;;24.40;;
35681;SDS011;21805;51.022;4.782;2023-11-21T06:55:57;58.13;;;26.05;;
35681;SDS011;21805;51.022;4.782;2023-11-21T06:58:28;57.93;;;24.17;;
35681;SDS011;21805;51.022;4.782;2023-11-21T07:00:57;52.50;;;25.13;;
35681;SDS011;21805;51.022;4.782;2023-11-21T07:03:31;55.58;;;25.17;;
35681;SDS011;21805;51.022;4.782;2023-11-21T07:06:04;46.72;;;23.98;;
35681;SDS011;21805;51.022;4.782;2023-11-21T07:08:39;53.35;;;24.42;;
35681;SDS011;21805;51.022;4.782;2023-11-21T07:11:08;49.13;;;25.42;;
35681;SDS011;21805;51.022;4.782;2023-11-21T07:13:45;52.75;;;25.45;;
35681;SDS011;21805;51.022;4.782;2023-11-21T07:16:15;53.38;;;26.00;;
35681;SDS011;21805;51.022;4.782;2023-11-21T07:18:41;57.80;;;25.45;;
35681;SDS011;21805;51.022;4.782;2023-11-21T07:21:12;63.28;;;23.70;;
35681;SDS011;21805;51.022;4.782;2023-11-21T07:23:39;47.05;;;22.88;;
35681;SDS011;21805;51.022;4.782;2023-11-21T07:32:12;55.65;;;24.90;;
35681;SDS011;21805;51.022;4.782;2023-11-21T07:34:44;42.35;;;22.80;;
35681;SDS011;21805;51.022;4.782;2023-11-21T07:37:11;45.30;;;21.85;;
35681;SDS011;21805;51.022;4.782;2023-11-21T07:39:38;48.08;;;24.60;;
35681;SDS011;21805;51.022;4.782;2023-11-21T07:42:10;40.95;;;21.08;;
35681;SDS011;21805;51.022;4.782;2023-11-21T07:44:43;61.95;;;23.40;;
35681;SDS011;21805;51.022;4.782;2023-11-21T07:47:14;55.70;;;27.15;;
35681;SDS011;21805;51.022;4.782;2023-11-21T07:49:46;45.03;;;22.27;;
